Time;durP1;ratioP1;P1;durP2;ratioP2;P2;SDS_P1;SDS_P2;PMS_P1;PMS_P2;Temp;Humidity;BMP_temperature;BMP_pressure;BME280_temperature;BME280_humidity;BME280_pressure;Samples;Min_cycle;Max_cycle;Signal;HPM_P1;HPM_P2
2022/11/23 00:00:32;;;;;;;46.75;21.10;;;2.50;99.90;;;;;;5048077;28;20029;-72
2022/11/23 00:02:59;;;;;;;41.75;20.38;;;2.50;99.90;;;;;;5049393;28;20525;-72
2022/11/23 00:05:26;;;;;;;44.40;20.65;;;2.50;99.90;;;;;;5017316;28;20087;-72
2022/11/23 00:07:52;;;;;;;43.58;20.17;;;2.50;99.90;;;;;;5032072;28;20063;-72
2022/11/23 00:10:18;;;;;;;43.53;21.35;;;2.50;99.90;;;;;;5048975;28;20087;-72
2022/11/23 00:12:44;;;;;;;48.90;21.05;;;2.50;99.90;;;;;;5032720;28;20029;-72
2022/11/23 00:15:12;;;;;;;47.03;20.95;;;2.50;99.90;;;;;;5046686;28;20113;-73
2022/11/23 00:17:38;;;;;;;43.78;20.70;;;2.50;99.90;;;;;;5019698;28;20056;-73
2022/11/23 00:20:06;;;;;;;41.88;20.15;;;2.50;99.90;;;;;;5004281;28;20055;-73
2022/11/23 00:22:32;;;;;;;42.92;21.55;;;2.50;99.90;;;;;;5020666;28;20029;-72
2022/11/23 00:24:57;;;;;;;43.65;22.10;;;2.50;99.90;;;;;;5040350;28;20029;-72
2022/11/23 00:27:23;;;;;;;43.88;20.48;;;2.50;99.90;;;;;;5021225;28;20037;-73
2022/11/23 00:29:49;;;;;;;45.55;21.92;;;2.50;99.90;;;;;;5051217;28;20024;-72
2022/11/23 00:32:15;;;;;;;39.95;18.83;;;2.50;99.90;;;;;;5036563;28;20033;-72
2022/11/23 00:34:40;;;;;;;44.25;20.38;;;2.50;99.90;;;;;;5040535;28;20402;-73
2022/11/23 00:37:06;;;;;;;41.45;20.35;;;2.50;99.90;;;;;;5019811;28;20090;-72
2022/11/23 00:39:32;;;;;;;43.83;22.13;;;2.50;99.90;;;;;;5019748;28;20048;-72
2022/11/23 00:41:58;;;;;;;41.13;20.38;;;2.50;99.90;;;;;;5038826;28;20080;-73
2022/11/23 00:44:24;;;;;;;41.30;20.48;;;2.50;99.90;;;;;;5043783;28;20029;-72
2022/11/23 00:46:50;;;;;;;43.20;20.33;;;2.60;99.90;;;;;;5020188;28;20342;-72
2022/11/23 00:49:16;;;;;;;44.47;20.25;;;2.50;99.90;;;;;;5032869;28;20397;-72
2022/11/23 00:51:41;;;;;;;41.90;21.20;;;2.60;99.90;;;;;;5040831;28;20464;-72
2022/11/23 00:54:07;;;;;;;42.97;20.38;;;2.60;99.90;;;;;;5039245;28;20040;-73
2022/11/23 00:56:34;;;;;;;42.47;21.13;;;2.60;99.90;;;;;;5057048;28;20099;-73
2022/11/23 00:59:01;;;;;;;53.28;22.25;;;2.60;99.90;;;;;;5037842;28;20057;-73
2022/11/23 01:01:35;;;;;;;41.22;20.67;;;2.60;99.90;;;;;;5017727;28;20028;-73
2022/11/23 01:04:04;;;;;;;44.55;21.85;;;2.60;99.90;;;;;;5036673;28;20047;-72
2022/11/23 01:06:33;;;;;;;42.63;21.48;;;2.60;99.90;;;;;;5021283;28;20041;-72
2022/11/23 01:09:03;;;;;;;42.67;20.10;;;2.60;99.90;;;;;;5050014;28;20052;-72
2022/11/23 01:11:31;;;;;;;45.40;20.25;;;2.60;99.90;;;;;;5036651;28;20033;-72
2022/11/23 01:13:57;;;;;;;46.17;19.45;;;2.60;99.90;;;;;;5053899;28;20029;-72
2022/11/23 01:16:29;;;;;;;41.92;19.98;;;2.60;99.90;;;;;;5053492;28;20027;-73
2022/11/23 01:19:07;;;;;;;42.72;20.08;;;2.60;99.90;;;;;;5038713;28;20666;-72
2022/11/23 01:21:34;;;;;;;41.38;19.42;;;2.60;99.90;;;;;;5018113;28;20029;-71
2022/11/23 01:24:07;;;;;;;49.42;21.05;;;2.60;99.90;;;;;;5017819;28;20103;-72
2022/11/23 01:26:32;;;;;;;42.65;19.85;;;2.60;99.90;;;;;;5038285;28;20112;-73
2022/11/23 01:28:58;;;;;;;39.75;20.23;;;2.60;99.90;;;;;;5019898;28;20172;-72
2022/11/23 01:31:25;;;;;;;37.55;19.10;;;2.60;99.90;;;;;;5051901;28;20047;-72
2022/11/23 01:33:55;;;;;;;41.13;19.17;;;2.60;99.90;;;;;;5034680;28;20092;-72
2022/11/23 01:36:24;;;;;;;38.45;19.48;;;2.60;99.90;;;;;;5019088;28;20108;-72
2022/11/23 01:38:50;;;;;;;40.40;19.85;;;2.60;99.90;;;;;;5035177;28;20040;-72
2022/11/23 01:41:22;;;;;;;42.00;20.75;;;2.60;99.90;;;;;;5035164;28;20029;-73
2022/11/23 01:43:48;;;;;;;39.17;19.95;;;2.60;99.90;;;;;;5036997;28;20038;-72
2022/11/23 01:46:14;;;;;;;40.88;20.17;;;2.60;99.90;;;;;;5019432;28;20103;-72
2022/11/23 01:49:02;;;;;;;44.67;19.05;;;2.60;99.90;;;;;;5020030;28;20520;-72
2022/11/23 01:51:36;;;;;;;37.20;19.33;;;2.70;99.90;;;;;;5034963;28;20037;-72
2022/11/23 01:54:08;;;;;;;44.33;19.75;;;2.70;99.90;;;;;;5016780;28;20030;-73
2022/11/23 01:56:38;;;;;;;40.67;18.48;;;2.70;99.90;;;;;;5035817;28;20082;-72
2022/11/23 01:59:09;;;;;;;41.15;18.83;;;2.70;99.90;;;;;;5052366;28;20473;-72
2022/11/23 02:01:35;;;;;;;39.20;18.67;;;2.70;99.90;;;;;;5034704;28;20052;-73
2022/11/23 02:04:02;;;;;;;40.30;19.38;;;2.70;99.90;;;;;;5013352;28;20061;-72
2022/11/23 02:06:30;;;;;;;38.03;17.83;;;2.80;99.90;;;;;;5036731;28;20115;-73
2022/11/23 02:08:56;;;;;;;39.75;18.83;;;2.70;99.90;;;;;;5020863;28;20029;-73
2022/11/23 02:11:22;;;;;;;36.20;18.95;;;2.80;99.90;;;;;;5033584;28;20033;-71
2022/11/23 02:13:50;;;;;;;37.03;18.95;;;2.80;99.90;;;;;;5036264;28;20040;-71
2022/11/23 02:16:18;;;;;;;39.92;19.52;;;2.80;99.90;;;;;;5035603;28;20021;-72
2022/11/23 02:18:47;;;;;;;39.78;20.05;;;2.80;99.90;;;;;;5038747;28;20112;-72
2022/11/23 02:21:13;;;;;;;43.55;19.48;;;2.80;99.90;;;;;;5017249;28;20033;-72
2022/11/23 02:24:04;;;;;;;40.60;19.02;;;2.80;99.90;;;;;;5050735;28;20029;-71
2022/11/23 02:26:33;;;;;;;36.00;17.92;;;2.80;99.90;;;;;;5035522;28;20707;-73
2022/11/23 02:29:33;;;;;;;38.03;18.08;;;2.80;99.90;;;;;;5036158;28;20052;-71
2022/11/23 02:31:59;;;;;;;38.50;19.20;;;2.80;99.90;;;;;;4983152;28;20090;-73
2022/11/23 02:34:24;;;;;;;41.70;20.42;;;2.80;99.90;;;;;;5036763;28;20476;-73
2022/11/23 02:36:56;;;;;;;37.90;19.27;;;2.80;99.90;;;;;;5052939;28;20033;-72
2022/11/23 02:39:41;;;;;;;38.30;19.17;;;2.90;99.90;;;;;;5050141;28;20490;-73
2022/11/23 02:42:07;;;;;;;37.72;19.67;;;2.80;99.90;;;;;;5016116;28;20079;-71
2022/11/23 02:44:36;;;;;;;39.33;18.42;;;2.90;99.90;;;;;;5036510;28;20037;-73
2022/11/23 02:47:03;;;;;;;37.38;18.73;;;2.80;99.90;;;;;;5050583;28;20557;-71
2022/11/23 02:49:29;;;;;;;40.35;19.77;;;2.80;99.90;;;;;;5032545;28;20444;-71
2022/11/23 02:51:56;;;;;;;36.95;18.55;;;2.90;99.90;;;;;;5038295;28;20053;-72
2022/11/23 02:54:21;;;;;;;40.95;19.45;;;2.90;99.90;;;;;;5036916;28;20052;-73
2022/11/23 02:56:47;;;;;;;42.22;18.80;;;2.90;99.90;;;;;;5032670;28;20030;-73
2022/11/23 02:59:13;;;;;;;36.47;18.30;;;2.90;99.90;;;;;;5035486;28;20029;-73
2022/11/23 03:01:39;;;;;;;39.63;19.13;;;2.90;99.90;;;;;;5036860;28;20075;-72
2022/11/23 03:04:06;;;;;;;38.25;18.25;;;2.80;99.90;;;;;;5018854;28;20029;-71
2022/11/23 03:06:31;;;;;;;41.80;18.77;;;2.90;99.90;;;;;;5037529;28;20053;-73
2022/11/23 03:08:57;;;;;;;41.75;18.60;;;2.90;99.90;;;;;;5052272;28;20056;-72
2022/11/23 03:11:23;;;;;;;36.75;18.15;;;2.90;99.90;;;;;;5037103;28;20029;-73
2022/11/23 03:13:49;;;;;;;37.03;18.67;;;2.90;99.90;;;;;;5000451;28;20028;-72
2022/11/23 03:16:15;;;;;;;41.50;20.02;;;2.90;99.90;;;;;;5032158;28;20124;-73
2022/11/23 03:18:41;;;;;;;37.78;17.88;;;2.90;99.90;;;;;;5018406;28;20114;-72
2022/11/23 03:21:10;;;;;;;37.42;17.63;;;2.90;99.90;;;;;;5017260;28;20025;-72
2022/11/23 03:23:36;;;;;;;36.38;18.85;;;2.90;99.90;;;;;;5050789;28;20025;-73
2022/11/23 03:26:02;;;;;;;37.38;18.00;;;3.00;99.90;;;;;;5014017;28;20071;-73
2022/11/23 03:28:29;;;;;;;40.28;18.85;;;2.90;99.90;;;;;;5035646;28;20099;-73
2022/11/23 03:30:54;;;;;;;39.25;19.13;;;3.00;99.90;;;;;;5049115;28;20056;-73
2022/11/23 03:33:20;;;;;;;37.65;18.20;;;3.00;99.90;;;;;;5035459;28;20030;-73
2022/11/23 03:35:47;;;;;;;38.33;18.40;;;3.00;99.90;;;;;;5035497;28;20017;-73
2022/11/23 03:38:13;;;;;;;35.40;17.73;;;3.00;99.90;;;;;;5032384;28;20698;-72
2022/11/23 03:40:39;;;;;;;38.67;18.17;;;3.00;99.90;;;;;;5037796;28;20078;-72
2022/11/23 03:43:04;;;;;;;36.35;17.40;;;3.00;99.90;;;;;;5054277;28;20105;-73
2022/11/23 03:45:30;;;;;;;41.78;19.38;;;3.00;99.90;;;;;;5015917;28;20244;-73
2022/11/23 03:47:56;;;;;;;38.75;17.05;;;3.00;99.90;;;;;;5033012;28;20029;-73
2022/11/23 03:50:22;;;;;;;39.83;19.73;;;3.00;99.90;;;;;;5048125;28;20283;-73
2022/11/23 03:52:48;;;;;;;35.67;17.77;;;3.00;99.90;;;;;;5036544;28;20033;-73
2022/11/23 03:55:14;;;;;;;37.65;18.67;;;3.10;99.90;;;;;;5018675;28;20501;-72
2022/11/23 03:57:40;;;;;;;34.85;17.95;;;3.10;99.90;;;;;;5033552;28;20477;-73
2022/11/23 04:00:07;;;;;;;34.63;17.38;;;3.10;99.90;;;;;;5036064;28;20033;-73
2022/11/23 04:02:33;;;;;;;32.88;17.00;;;3.10;99.90;;;;;;5032892;28;20031;-73
2022/11/23 04:05:00;;;;;;;36.03;17.10;;;3.20;99.90;;;;;;5016464;28;20115;-73
2022/11/23 04:07:26;;;;;;;30.65;15.80;;;3.20;99.90;;;;;;5016714;28;20033;-72
2022/11/23 04:09:51;;;;;;;36.88;17.92;;;3.20;99.90;;;;;;5016874;28;20112;-72
2022/11/23 04:12:17;;;;;;;36.08;17.13;;;3.20;99.90;;;;;;5019923;28;20124;-72
2022/11/23 04:14:43;;;;;;;35.45;17.83;;;3.20;99.90;;;;;;5017643;28;20099;-72
2022/11/23 04:17:09;;;;;;;31.13;16.25;;;3.20;99.90;;;;;;5029852;28;20049;-72
2022/11/23 04:19:34;;;;;;;36.83;18.20;;;3.20;99.90;;;;;;5035102;28;20033;-73
2022/11/23 04:22:00;;;;;;;33.40;16.05;;;3.20;99.90;;;;;;5031386;28;20445;-73
2022/11/23 04:24:26;;;;;;;32.45;16.55;;;3.30;99.90;;;;;;5015679;28;20112;-72
2022/11/23 04:26:52;;;;;;;32.58;16.85;;;3.30;99.90;;;;;;5051217;28;20070;-72
2022/11/23 04:29:17;;;;;;;31.95;16.30;;;3.30;99.90;;;;;;5050513;28;20041;-72
2022/11/23 04:31:43;;;;;;;34.50;17.10;;;3.30;99.90;;;;;;5038343;28;20355;-72
2022/11/23 04:34:09;;;;;;;34.70;16.33;;;3.30;99.90;;;;;;5014041;28;20025;-72
2022/11/23 04:36:35;;;;;;;33.05;16.25;;;3.30;99.90;;;;;;5032078;28;20076;-73
2022/11/23 04:39:02;;;;;;;39.03;17.98;;;3.30;99.90;;;;;;5033335;28;20110;-72
2022/11/23 04:41:28;;;;;;;32.85;16.27;;;3.30;99.90;;;;;;5019945;28;20087;-73
2022/11/23 04:43:55;;;;;;;37.95;17.85;;;3.20;99.90;;;;;;5019117;28;20087;-72
2022/11/23 04:46:21;;;;;;;40.97;17.80;;;3.30;99.90;;;;;;5033457;28;20093;-72
2022/11/23 04:48:46;;;;;;;34.53;16.92;;;3.30;99.90;;;;;;5034213;28;20038;-72
2022/11/23 04:51:12;;;;;;;31.88;16.25;;;3.30;99.90;;;;;;5030371;28;20117;-73
2022/11/23 04:53:39;;;;;;;27.77;15.88;;;3.30;99.90;;;;;;5034570;28;20099;-73
2022/11/23 04:56:05;;;;;;;30.67;15.93;;;3.30;99.90;;;;;;5048415;28;20466;-73
2022/11/23 04:58:31;;;;;;;32.75;16.55;;;3.30;99.90;;;;;;5017004;28;20513;-73
2022/11/23 05:00:58;;;;;;;33.13;16.90;;;3.30;99.90;;;;;;5017216;28;20024;-72
2022/11/23 05:03:24;;;;;;;36.70;16.58;;;3.30;99.90;;;;;;5017402;28;20043;-72
2022/11/23 05:05:50;;;;;;;35.35;16.90;;;3.40;99.90;;;;;;5032944;28;20033;-73
2022/11/23 05:08:15;;;;;;;33.65;14.93;;;3.40;99.90;;;;;;5049174;28;20619;-72
2022/11/23 05:10:42;;;;;;;28.38;15.65;;;3.40;99.90;;;;;;5018122;28;20033;-71
2022/11/23 05:13:08;;;;;;;31.98;17.10;;;3.40;99.90;;;;;;5052045;28;20040;-72
2022/11/23 05:15:33;;;;;;;31.80;16.30;;;3.40;99.90;;;;;;5017699;28;20543;-72
2022/11/23 05:18:05;;;;;;;30.33;15.15;;;3.40;99.90;;;;;;5039206;28;20025;-71
2022/11/23 05:20:31;;;;;;;35.67;16.50;;;3.50;99.90;;;;;;5036540;28;20041;-71
2022/11/23 05:22:57;;;;;;;33.65;17.15;;;3.40;99.90;;;;;;5038390;28;20032;-72
2022/11/23 05:25:23;;;;;;;30.77;16.20;;;3.40;99.90;;;;;;5037103;28;20539;-72
2022/11/23 05:27:48;;;;;;;31.98;16.15;;;3.40;99.90;;;;;;5050292;28;20082;-73
2022/11/23 05:30:14;;;;;;;32.10;16.50;;;3.40;99.90;;;;;;5037661;28;20035;-72
2022/11/23 05:32:40;;;;;;;36.85;18.08;;;3.40;99.90;;;;;;5019135;28;20029;-72
2022/11/23 05:35:06;;;;;;;34.17;17.52;;;3.40;99.90;;;;;;5034476;28;20032;-73
2022/11/23 05:37:33;;;;;;;38.28;18.60;;;3.40;99.90;;;;;;5036255;28;20414;-74
2022/11/23 05:39:59;;;;;;;37.10;17.77;;;3.40;99.90;;;;;;5056171;28;20028;-71
2022/11/23 05:42:24;;;;;;;33.08;16.85;;;3.40;99.90;;;;;;5029982;28;20585;-72
2022/11/23 05:44:50;;;;;;;32.85;16.83;;;3.30;99.90;;;;;;5017159;28;20397;-72
2022/11/23 05:47:16;;;;;;;37.80;19.00;;;3.30;99.90;;;;;;5033431;28;20021;-73
2022/11/23 05:49:42;;;;;;;32.83;17.08;;;3.30;99.90;;;;;;5037156;28;20091;-73
2022/11/23 05:52:10;;;;;;;40.60;18.13;;;3.30;99.90;;;;;;5047477;28;20109;-72
2022/11/23 05:54:36;;;;;;;34.70;17.98;;;3.40;99.90;;;;;;5034287;28;20520;-71
2022/11/23 05:57:03;;;;;;;37.92;17.50;;;3.30;99.90;;;;;;5033243;28;20036;-71
2022/11/23 05:59:29;;;;;;;37.95;17.20;;;3.40;99.90;;;;;;5025503;28;20524;-72
2022/11/23 06:01:54;;;;;;;36.63;18.00;;;3.40;99.90;;;;;;5050404;28;20033;-72
2022/11/23 06:04:20;;;;;;;36.67;17.23;;;3.40;99.90;;;;;;5048790;28;20124;-72
2022/11/23 06:06:46;;;;;;;32.22;17.65;;;3.40;99.90;;;;;;5033536;28;20128;-72
2022/11/23 06:09:12;;;;;;;40.15;17.20;;;3.40;99.90;;;;;;5046638;28;20159;-72
2022/11/23 06:11:37;;;;;;;34.05;17.08;;;3.40;99.90;;;;;;5015110;28;20091;-72
2022/11/23 06:14:03;;;;;;;29.95;16.45;;;3.30;99.90;;;;;;5011135;28;20037;-72
2022/11/23 06:16:29;;;;;;;33.08;16.33;;;3.30;99.90;;;;;;5044942;28;20037;-72
2022/11/23 06:18:55;;;;;;;40.63;17.73;;;3.30;99.90;;;;;;5029726;28;20035;-72
2022/11/23 06:21:20;;;;;;;35.65;15.77;;;3.40;99.90;;;;;;5042028;28;20401;-72
2022/11/23 06:23:47;;;;;;;33.85;16.60;;;3.40;99.90;;;;;;5031486;28;20041;-72
2022/11/23 06:26:12;;;;;;;34.70;16.15;;;3.40;99.90;;;;;;5052289;28;20037;-72
2022/11/23 06:28:38;;;;;;;33.33;14.82;;;3.50;99.90;;;;;;5016764;28;20036;-72
2022/11/23 06:31:05;;;;;;;31.30;15.38;;;3.50;99.90;;;;;;5010975;28;20533;-72
2022/11/23 06:33:32;;;;;;;32.88;16.08;;;3.50;99.90;;;;;;5010640;28;20034;-72
2022/11/23 06:35:59;;;;;;;31.00;15.70;;;3.50;99.90;;;;;;5025157;28;20029;-72
2022/11/23 06:38:26;;;;;;;30.88;15.38;;;3.50;99.90;;;;;;5034067;28;20025;-73
2022/11/23 06:40:52;;;;;;;33.30;15.23;;;3.50;99.90;;;;;;5013706;28;20509;-72
2022/11/23 06:43:17;;;;;;;35.10;15.52;;;3.50;99.90;;;;;;5053108;28;20039;-72
2022/11/23 06:45:46;;;;;;;34.88;16.65;;;3.50;99.90;;;;;;5034494;28;20606;-72
2022/11/23 06:48:12;;;;;;;32.40;16.48;;;3.50;99.90;;;;;;5033381;28;20036;-72
2022/11/23 06:50:38;;;;;;;32.85;16.90;;;3.50;99.90;;;;;;5012519;28;20037;-73
2022/11/23 06:53:05;;;;;;;30.40;15.55;;;3.50;99.90;;;;;;5051973;28;20039;-72
2022/11/23 06:55:31;;;;;;;31.85;16.08;;;3.60;99.90;;;;;;5028129;28;20039;-73
2022/11/23 06:57:58;;;;;;;34.17;16.63;;;3.60;99.90;;;;;;5048072;28;20029;-72
2022/11/23 07:00:25;;;;;;;33.80;16.75;;;3.60;99.90;;;;;;5035051;28;20032;-75
2022/11/23 07:02:52;;;;;;;37.78;16.88;;;3.70;99.90;;;;;;5023134;28;20037;-72
2022/11/23 07:05:18;;;;;;;35.13;16.35;;;3.70;99.90;;;;;;5024552;28;20040;-72
2022/11/23 07:07:44;;;;;;;35.53;16.77;;;3.70;99.90;;;;;;5020161;28;20040;-72
2022/11/23 07:10:10;;;;;;;29.20;15.23;;;3.70;99.90;;;;;;5036708;28;20028;-73
2022/11/23 07:12:36;;;;;;;32.72;15.52;;;3.70;99.90;;;;;;5049411;28;20033;-72
2022/11/23 07:15:04;;;;;;;41.60;15.88;;;4.10;99.90;;;;;;5034187;28;20040;-71
2022/11/23 07:17:29;;;;;;;31.63;15.95;;;4.00;99.90;;;;;;5047147;28;20040;-72
2022/11/23 07:19:55;;;;;;;29.00;13.85;;;3.90;99.90;;;;;;5035419;28;20025;-73
2022/11/23 07:22:21;;;;;;;28.05;14.63;;;3.90;99.90;;;;;;5046211;28;20029;-72
2022/11/23 07:24:47;;;;;;;27.58;14.15;;;3.80;99.90;;;;;;5015588;28;20029;-72
2022/11/23 07:27:12;;;;;;;28.70;14.00;;;3.80;99.90;;;;;;5036165;28;20024;-71
2022/11/23 07:29:38;;;;;;;26.15;14.77;;;3.90;99.90;;;;;;5034931;28;20021;-72
2022/11/23 07:32:07;;;;;;;29.73;13.40;;;3.90;99.90;;;;;;5024276;28;20572;-72
2022/11/23 07:34:33;;;;;;;29.08;14.13;;;3.90;99.90;;;;;;5047005;28;20033;-72
2022/11/23 07:36:58;;;;;;;24.92;13.35;;;3.90;99.90;;;;;;5032448;28;20025;-73
2022/11/23 07:39:25;;;;;;;24.95;13.55;;;3.90;99.90;;;;;;5049116;28;20021;-73
2022/11/23 07:41:51;;;;;;;24.33;13.10;;;3.90;99.90;;;;;;5015989;28;20053;-72
